sensor_id;sensor_type;location;lat;lon;timestamp;pressure;altitude;pressure_sealevel;temperature;humidity
62025;BME280;47978;49.118;12.146;2023-04-26T00:00:00;97359.91;;;4.06;84.41
62025;BME280;47978;49.118;12.146;2023-04-26T00:04:03;97362.34;;;4.02;83.85
62025;BME280;47978;49.118;12.146;2023-04-26T00:08:05;97371.03;;;3.89;84.09
62025;BME280;47978;49.118;12.146;2023-04-26T00:12:07;97377.66;;;3.98;83.21
62025;BME280;47978;49.118;12.146;2023-04-26T00:16:08;97372.25;;;3.61;84.72
62025;BME280;47978;49.118;12.146;2023-04-26T00:20:11;97378.75;;;3.50;84.92
62025;BME280;47978;49.118;12.146;2023-04-26T00:24:13;97378.09;;;3.32;85.49
62025;BME280;47978;49.118;12.146;2023-04-26T00:28:14;97383.25;;;3.29;86.03
62025;BME280;47978;49.118;12.146;2023-04-26T00:32:15;97382.53;;;3.06;86.78
62025;BME280;47978;49.118;12.146;2023-04-26T00:36:18;97385.50;;;3.00;86.64
62025;BME280;47978;49.118;12.146;2023-04-26T00:40:19;97386.81;;;2.97;86.70
62025;BME280;47978;49.118;12.146;2023-04-26T00:44:21;97386.53;;;2.93;86.40
62025;BME280;47978;49.118;12.146;2023-04-26T00:48:22;97372.06;;;2.98;85.71
62025;BME280;47978;49.118;12.146;2023-04-26T00:52:25;97380.22;;;2.93;85.29
62025;BME280;47978;49.118;12.146;2023-04-26T00:56:27;97377.63;;;2.76;85.88
62025;BME280;47978;49.118;12.146;2023-04-26T01:00:29;97379.59;;;2.54;87.22
62025;BME280;47978;49.118;12.146;2023-04-26T01:04:30;97379.53;;;2.48;87.09
62025;BME280;47978;49.118;12.146;2023-04-26T01:08:33;97380.47;;;2.59;86.66
62025;BME280;47978;49.118;12.146;2023-04-26T01:12:35;97371.44;;;2.59;86.15
62025;BME280;47978;49.118;12.146;2023-04-26T01:16:37;97375.22;;;2.53;85.92
62025;BME280;47978;49.118;12.146;2023-04-26T01:20:38;97383.44;;;2.31;86.84
62025;BME280;47978;49.118;12.146;2023-04-26T01:24:41;97382.22;;;2.21;87.69
62025;BME280;47978;49.118;12.146;2023-04-26T01:28:43;97387.31;;;2.13;88.36
62025;BME280;47978;49.118;12.146;2023-04-26T01:32:45;97387.75;;;2.05;87.67
62025;BME280;47978;49.118;12.146;2023-04-26T01:36:46;97384.78;;;2.06;87.88
62025;BME280;47978;49.118;12.146;2023-04-26T01:40:49;97376.47;;;1.96;87.99
62025;BME280;47978;49.118;12.146;2023-04-26T01:44:50;97380.47;;;1.88;88.49
62025;BME280;47978;49.118;12.146;2023-04-26T01:48:51;97385.47;;;1.74;89.13
62025;BME280;47978;49.118;12.146;2023-04-26T01:52:53;97390.03;;;1.69;89.84
62025;BME280;47978;49.118;12.146;2023-04-26T01:56:56;97392.75;;;1.69;89.44
62025;BME280;47978;49.118;12.146;2023-04-26T02:01:03;97406.34;;;1.86;87.68
62025;BME280;47978;49.118;12.146;2023-04-26T02:05:05;97400.97;;;1.91;88.12
62025;BME280;47978;49.118;12.146;2023-04-26T02:09:06;97405.56;;;1.90;87.83
62025;BME280;47978;49.118;12.146;2023-04-26T02:13:09;97396.66;;;1.95;87.47
62025;BME280;47978;49.118;12.146;2023-04-26T02:17:11;97399.50;;;1.83;87.16
62025;BME280;47978;49.118;12.146;2023-04-26T02:21:12;97386.53;;;1.51;88.42
62025;BME280;47978;49.118;12.146;2023-04-26T02:25:13;97397.84;;;1.43;88.71
62025;BME280;47978;49.118;12.146;2023-04-26T02:29:16;97396.03;;;1.32;89.49
62025;BME280;47978;49.118;12.146;2023-04-26T02:33:18;97405.03;;;1.32;88.98
62025;BME280;47978;49.118;12.146;2023-04-26T02:37:19;97403.53;;;1.25;89.16
62025;BME280;47978;49.118;12.146;2023-04-26T02:41:20;97407.53;;;1.17;89.30
62025;BME280;47978;49.118;12.146;2023-04-26T02:45:23;97400.59;;;1.09;89.91
62025;BME280;47978;49.118;12.146;2023-04-26T02:49:25;97404.53;;;1.02;90.40
62025;BME280;47978;49.118;12.146;2023-04-26T02:53:26;97405.03;;;0.99;90.42
62025;BME280;47978;49.118;12.146;2023-04-26T02:57:27;97403.41;;;0.98;90.14
62025;BME280;47978;49.118;12.146;2023-04-26T03:01:30;97406.25;;;0.91;90.65
62025;BME280;47978;49.118;12.146;2023-04-26T03:05:32;97402.97;;;0.89;90.74
62025;BME280;47978;49.118;12.146;2023-04-26T03:09:33;97404.13;;;0.93;90.69
62025;BME280;47978;49.118;12.146;2023-04-26T03:13:34;97409.41;;;0.83;90.82
62025;BME280;47978;49.118;12.146;2023-04-26T03:17:37;97419.81;;;0.86;90.28
62025;BME280;47978;49.118;12.146;2023-04-26T03:21:38;97417.09;;;0.86;90.64
62025;BME280;47978;49.118;12.146;2023-04-26T03:25:40;97418.50;;;0.88;91.10
62025;BME280;47978;49.118;12.146;2023-04-26T03:29:41;97424.34;;;0.80;91.21
62025;BME280;47978;49.118;12.146;2023-04-26T03:33:45;97423.66;;;0.90;91.37
62025;BME280;47978;49.118;12.146;2023-04-26T03:37:47;97416.41;;;0.96;91.01
62025;BME280;47978;49.118;12.146;2023-04-26T03:41:48;97432.94;;;1.06;90.49
62025;BME280;47978;49.118;12.146;2023-04-26T03:45:50;97421.78;;;1.07;91.11
62025;BME280;47978;49.118;12.146;2023-04-26T03:49:53;97432.19;;;1.10;90.28
62025;BME280;47978;49.118;12.146;2023-04-26T03:53:54;97429.53;;;1.16;90.48
62025;BME280;47978;49.118;12.146;2023-04-26T03:57:56;97434.50;;;1.19;90.16
62025;BME280;47978;49.118;12.146;2023-04-26T04:01:57;97444.06;;;1.04;90.59
62025;BME280;47978;49.118;12.146;2023-04-26T04:06:00;97441.25;;;1.16;89.72
62025;BME280;47978;49.118;12.146;2023-04-26T04:10:01;97442.31;;;0.98;90.77
62025;BME280;47978;49.118;12.146;2023-04-26T04:14:03;97445.63;;;1.00;90.87
62025;BME280;47978;49.118;12.146;2023-04-26T04:18:04;97450.69;;;1.08;91.01
62025;BME280;47978;49.118;12.146;2023-04-26T04:22:07;97448.19;;;1.24;90.73
62025;BME280;47978;49.118;12.146;2023-04-26T04:26:08;97445.38;;;1.35;90.51
62025;BME280;47978;49.118;12.146;2023-04-26T04:30:10;97445.72;;;1.39;91.12
62025;BME280;47978;49.118;12.146;2023-04-26T04:34:11;97451.34;;;1.49;90.60
62025;BME280;47978;49.118;12.146;2023-04-26T04:38:14;97453.88;;;1.56;90.99
62025;BME280;47978;49.118;12.146;2023-04-26T04:42:15;97462.13;;;1.78;90.71
62025;BME280;47978;49.118;12.146;2023-04-26T04:46:17;97453.41;;;1.98;89.20
62025;BME280;47978;49.118;12.146;2023-04-26T04:50:18;97467.22;;;2.13;89.09
62025;BME280;47978;49.118;12.146;2023-04-26T04:54:21;97469.53;;;2.21;89.23
62025;BME280;47978;49.118;12.146;2023-04-26T04:58:22;97478.38;;;2.51;88.78
62025;BME280;47978;49.118;12.146;2023-04-26T05:02:24;97473.59;;;2.63;88.55
62025;BME280;47978;49.118;12.146;2023-04-26T05:06:26;97471.44;;;2.92;87.75
62025;BME280;47978;49.118;12.146;2023-04-26T05:10:29;97482.50;;;3.07;87.29
62025;BME280;47978;49.118;12.146;2023-04-26T05:14:30;97476.28;;;3.44;86.40
62025;BME280;47978;49.118;12.146;2023-04-26T05:18:32;97483.31;;;3.67;85.65
62025;BME280;47978;49.118;12.146;2023-04-26T05:22:33;97487.44;;;4.07;84.91
62025;BME280;47978;49.118;12.146;2023-04-26T05:26:36;97486.53;;;4.49;82.33
62025;BME280;47978;49.118;12.146;2023-04-26T05:30:37;97488.06;;;4.97;80.60
62025;BME280;47978;49.118;12.146;2023-04-26T05:34:39;97491.44;;;5.25;80.81
62025;BME280;47978;49.118;12.146;2023-04-26T05:38:41;97489.53;;;6.18;76.96
62025;BME280;47978;49.118;12.146;2023-04-26T05:42:43;97501.78;;;8.19;68.79
62025;BME280;47978;49.118;12.146;2023-04-26T05:46:45;97489.31;;;10.26;58.82
62025;BME280;47978;49.118;12.146;2023-04-26T05:50:46;97488.28;;;11.32;56.04
62025;BME280;47978;49.118;12.146;2023-04-26T05:54:48;97492.25;;;11.90;53.33
62025;BME280;47978;49.118;12.146;2023-04-26T05:58:50;97497.03;;;11.98;51.54
62025;BME280;47978;49.118;12.146;2023-04-26T06:02:52;97498.09;;;12.42;50.62
62025;BME280;47978;49.118;12.146;2023-04-26T06:06:53;97500.78;;;12.25;50.15
62025;BME280;47978;49.118;12.146;2023-04-26T06:10:54;97493.16;;;11.85;51.35
62025;BME280;47978;49.118;12.146;2023-04-26T06:14:57;97497.78;;;12.12;50.55
62025;BME280;47978;49.118;12.146;2023-04-26T06:18:59;97499.53;;;12.08;50.37
62025;BME280;47978;49.118;12.146;2023-04-26T06:23:00;97500.63;;;12.52;49.37
62025;BME280;47978;49.118;12.146;2023-04-26T06:27:01;97509.03;;;12.70;48.59
62025;BME280;47978;49.118;12.146;2023-04-26T06:31:04;97505.91;;;12.71;48.68
62025;BME280;47978;49.118;12.146;2023-04-26T06:35:06;97502.09;;;12.90;47.94
62025;BME280;47978;49.118;12.146;2023-04-26T06:39:07;97502.25;;;13.77;46.07
62025;BME280;47978;49.118;12.146;2023-04-26T06:43:09;97506.59;;;14.56;43.14
62025;BME280;47978;49.118;12.146;2023-04-26T06:47:11;97511.84;;;15.34;40.02
62025;BME280;47978;49.118;12.146;2023-04-26T06:51:13;97514.19;;;15.23;40.27
62025;BME280;47978;49.118;12.146;2023-04-26T06:55:14;97513.81;;;14.31;41.29
62025;BME280;47978;49.118;12.146;2023-04-26T06:59:15;97517.69;;;12.77;44.39
62025;BME280;47978;49.118;12.146;2023-04-26T07:03:18;97520.50;;;12.54;45.35
62025;BME280;47978;49.118;12.146;2023-04-26T07:07:20;97524.41;;;12.00;47.63
62025;BME280;47978;49.118;12.146;2023-04-26T07:11:22;97526.94;;;11.87;46.81
62025;BME280;47978;49.118;12.146;2023-04-26T07:15:26;97520.19;;;12.02;48.49
62025;BME280;47978;49.118;12.146;2023-04-26T07:19:29;97520.88;;;11.85;49.29
62025;BME280;47978;49.118;12.146;2023-04-26T07:23:30;97524.34;;;11.91;47.51
62025;BME280;47978;49.118;12.146;2023-04-26T07:27:32;97520.44;;;11.56;48.41
62025;BME280;47978;49.118;12.146;2023-04-26T07:31:33;97512.44;;;11.54;46.06
62025;BME280;47978;49.118;12.146;2023-04-26T07:35:37;97519.56;;;11.33;46.84
62025;BME280;47978;49.118;12.146;2023-04-26T07:39:38;97525.75;;;11.16;47.46
62025;BME280;47978;49.118;12.146;2023-04-26T07:43:40;97521.59;;;11.41;46.51
62025;BME280;47978;49.118;12.146;2023-04-26T07:47:41;97521.88;;;11.53;44.19
62025;BME280;47978;49.118;12.146;2023-04-26T07:51:44;97527.50;;;11.62;43.31
62025;BME280;47978;49.118;12.146;2023-04-26T07:55:45;97524.56;;;11.44;45.57
62025;BME280;47978;49.118;12.146;2023-04-26T07:59:46;97514.19;;;11.86;44.46
62025;BME280;47978;49.118;12.146;2023-04-26T08:03:48;97508.47;;;12.05;43.46
62025;BME280;47978;49.118;12.146;2023-04-26T08:07:51;97515.34;;;12.30;44.08
62025;BME280;47978;49.118;12.146;2023-04-26T08:11:53;97512.56;;;11.85;44.25
62025;BME280;47978;49.118;12.146;2023-04-26T08:15:54;97505.16;;;11.81;43.62
62025;BME280;47978;49.118;12.146;2023-04-26T08:19:55;97511.22;;;11.83;43.25
62025;BME280;47978;49.118;12.146;2023-04-26T08:23:58;97520.72;;;12.04;43.66
62025;BME280;47978;49.118;12.146;2023-04-26T08:28:00;97514.59;;;11.80;43.01
62025;BME280;47978;49.118;12.146;2023-04-26T08:32:01;97513.97;;;11.46;43.16
62025;BME280;47978;49.118;12.146;2023-04-26T08:36:02;97515.41;;;11.80;43.10
62025;BME280;47978;49.118;12.146;2023-04-26T08:40:06;97523.53;;;12.13;43.75
62025;BME280;47978;49.118;12.146;2023-04-26T08:44:08;97512.81;;;12.20;41.19
62025;BME280;47978;49.118;12.146;2023-04-26T08:48:09;97516.66;;;11.88;41.44
62025;BME280;47978;49.118;12.146;2023-04-26T08:52:12;97517.56;;;11.83;41.54
62025;BME280;47978;49.118;12.146;2023-04-26T08:56:15;97511.25;;;12.05;42.26
62025;BME280;47978;49.118;12.146;2023-04-26T09:00:17;97517.19;;;11.76;41.68
62025;BME280;47978;49.118;12.146;2023-04-26T09:04:18;97520.66;;;11.45;42.09
62025;BME280;47978;49.118;12.146;2023-04-26T09:08:20;97522.00;;;11.34;43.81
62025;BME280;47978;49.118;12.146;2023-04-26T09:12:24;97515.63;;;11.47;43.83
62025;BME280;47978;49.118;12.146;2023-04-26T09:16:33;97500.84;;;11.88;43.42
62025;BME280;47978;49.118;12.146;2023-04-26T09:20:34;97510.97;;;12.38;42.23
62025;BME280;47978;49.118;12.146;2023-04-26T09:24:45;97508.38;;;12.73;40.13
62025;BME280;47978;49.118;12.146;2023-04-26T09:28:49;97511.81;;;12.78;37.62
62025;BME280;47978;49.118;12.146;2023-04-26T09:32:51;97517.28;;;12.92;39.14
62025;BME280;47978;49.118;12.146;2023-04-26T09:36:53;97510.09;;;13.00;37.73
62025;BME280;47978;49.118;12.146;2023-04-26T09:40:55;97518.34;;;12.43;37.21
62025;BME280;47978;49.118;12.146;2023-04-26T09:45:05;97501.13;;;12.63;38.34
62025;BME280;47978;49.118;12.146;2023-04-26T09:49:07;97512.22;;;12.63;38.51
62025;BME280;47978;49.118;12.146;2023-04-26T09:53:08;97515.09;;;12.49;39.76
62025;BME280;47978;49.118;12.146;2023-04-26T09:57:09;97515.56;;;12.74;38.50
62025;BME280;47978;49.118;12.146;2023-04-26T10:01:12;97506.19;;;13.01;36.12
62025;BME280;47978;49.118;12.146;2023-04-26T10:05:15;97511.56;;;12.57;37.02
62025;BME280;47978;49.118;12.146;2023-04-26T10:09:16;97517.59;;;12.59;37.30
62025;BME280;47978;49.118;12.146;2023-04-26T10:13:18;97510.88;;;12.52;37.72
62025;BME280;47978;49.118;12.146;2023-04-26T10:17:20;97508.81;;;12.66;38.15
62025;BME280;47978;49.118;12.146;2023-04-26T10:21:24;97510.50;;;12.76;37.86
62025;BME280;47978;49.118;12.146;2023-04-26T10:25:33;97500.88;;;12.73;39.69
62025;BME280;47978;49.118;12.146;2023-04-26T10:38:13;97489.09;;;12.36;39.30
62025;BME280;47978;49.118;12.146;2023-04-26T10:42:18;97492.59;;;12.51;38.23
62025;BME280;47978;49.118;12.146;2023-04-26T10:50:47;97483.19;;;12.29;37.21
62025;BME280;47978;49.118;12.146;2023-04-26T10:55:08;97490.00;;;12.23;38.00
62025;BME280;47978;49.118;12.146;2023-04-26T10:59:10;97480.22;;;11.81;38.80
62025;BME280;47978;49.118;12.146;2023-04-26T11:03:15;97469.94;;;12.26;37.74
62025;BME280;47978;49.118;12.146;2023-04-26T11:07:16;97465.72;;;12.60;37.98
62025;BME280;47978;49.118;12.146;2023-04-26T11:11:37;97485.22;;;12.86;36.85
62025;BME280;47978;49.118;12.146;2023-04-26T11:15:51;97480.50;;;12.78;37.66
62025;BME280;47978;49.118;12.146;2023-04-26T11:19:53;97472.34;;;12.81;37.20
62025;BME280;47978;49.118;12.146;2023-04-26T11:23:54;97457.50;;;12.95;37.56
62025;BME280;47978;49.118;12.146;2023-04-26T11:27:59;97454.09;;;12.98;36.69
62025;BME280;47978;49.118;12.146;2023-04-26T11:32:00;97463.00;;;13.26;37.00
62025;BME280;47978;49.118;12.146;2023-04-26T11:36:02;97457.34;;;13.00;35.76
62025;BME280;47978;49.118;12.146;2023-04-26T11:40:04;97465.50;;;12.88;34.53
62025;BME280;47978;49.118;12.146;2023-04-26T11:44:07;97467.06;;;12.71;35.00
62025;BME280;47978;49.118;12.146;2023-04-26T11:48:11;97466.31;;;12.88;35.98
62025;BME280;47978;49.118;12.146;2023-04-26T11:52:12;97466.94;;;12.85;35.48
62025;BME280;47978;49.118;12.146;2023-04-26T11:56:14;97453.00;;;13.25;34.21
62025;BME280;47978;49.118;12.146;2023-04-26T12:00:17;97442.44;;;13.70;35.50
62025;BME280;47978;49.118;12.146;2023-04-26T12:04:19;97447.16;;;13.79;35.28
62025;BME280;47978;49.118;12.146;2023-04-26T12:08:31;97451.94;;;13.52;35.68
62025;BME280;47978;49.118;12.146;2023-04-26T12:12:32;97442.44;;;13.79;34.87
62025;BME280;47978;49.118;12.146;2023-04-26T12:16:36;97452.88;;;13.73;34.97
62025;BME280;47978;49.118;12.146;2023-04-26T12:20:38;97455.50;;;13.35;34.25
62025;BME280;47978;49.118;12.146;2023-04-26T12:24:40;97459.81;;;12.93;36.13
62025;BME280;47978;49.118;12.146;2023-04-26T12:28:41;97476.81;;;12.60;36.08
62025;BME280;47978;49.118;12.146;2023-04-26T12:32:44;97457.41;;;12.69;36.96
62025;BME280;47978;49.118;12.146;2023-04-26T12:36:45;97441.78;;;12.73;36.69
62025;BME280;47978;49.118;12.146;2023-04-26T12:40:47;97449.09;;;12.69;36.54
62025;BME280;47978;49.118;12.146;2023-04-26T12:44:48;97440.00;;;12.77;36.11
62025;BME280;47978;49.118;12.146;2023-04-26T12:48:51;97435.53;;;13.24;36.86
62025;BME280;47978;49.118;12.146;2023-04-26T12:52:52;97441.84;;;12.99;35.40
62025;BME280;47978;49.118;12.146;2023-04-26T12:56:54;97435.00;;;12.96;35.42
62025;BME280;47978;49.118;12.146;2023-04-26T13:00:55;97424.47;;;13.33;35.42
62025;BME280;47978;49.118;12.146;2023-04-26T13:04:58;97438.50;;;13.37;35.57
62025;BME280;47978;49.118;12.146;2023-04-26T13:09:00;97435.72;;;13.37;35.48
62025;BME280;47978;49.118;12.146;2023-04-26T13:13:01;97432.06;;;13.01;36.41
62025;BME280;47978;49.118;12.146;2023-04-26T13:17:03;97435.00;;;13.05;37.09
62025;BME280;47978;49.118;12.146;2023-04-26T13:21:06;97428.66;;;13.13;36.93
62025;BME280;47978;49.118;12.146;2023-04-26T13:25:07;97434.03;;;13.10;36.00
62025;BME280;47978;49.118;12.146;2023-04-26T13:29:09;97439.09;;;13.08;35.96
62025;BME280;47978;49.118;12.146;2023-04-26T13:33:10;97431.91;;;13.07;36.00
62025;BME280;47978;49.118;12.146;2023-04-26T13:37:13;97426.38;;;13.15;36.16
62025;BME280;47978;49.118;12.146;2023-04-26T13:41:14;97422.03;;;13.49;36.18
62025;BME280;47978;49.118;12.146;2023-04-26T13:45:16;97431.31;;;13.36;34.94
62025;BME280;47978;49.118;12.146;2023-04-26T13:49:19;97411.38;;;13.34;35.44
62025;BME280;47978;49.118;12.146;2023-04-26T13:53:22;97431.44;;;13.13;35.40
62025;BME280;47978;49.118;12.146;2023-04-26T13:57:23;97433.53;;;12.99;35.08
62025;BME280;47978;49.118;12.146;2023-04-26T14:01:25;97430.91;;;12.94;36.29
62025;BME280;47978;49.118;12.146;2023-04-26T14:05:26;97425.38;;;13.02;35.97
62025;BME280;47978;49.118;12.146;2023-04-26T14:09:29;97401.72;;;13.22;35.64
62025;BME280;47978;49.118;12.146;2023-04-26T14:13:32;97408.59;;;13.42;35.74
62025;BME280;47978;49.118;12.146;2023-04-26T14:17:33;97407.94;;;13.54;34.49
62025;BME280;47978;49.118;12.146;2023-04-26T14:21:35;97411.19;;;13.21;34.64
62025;BME280;47978;49.118;12.146;2023-04-26T14:25:37;97407.13;;;13.62;34.57
62025;BME280;47978;49.118;12.146;2023-04-26T14:29:39;97394.31;;;13.96;34.51
62025;BME280;47978;49.118;12.146;2023-04-26T14:33:40;97403.16;;;13.98;34.66
62025;BME280;47978;49.118;12.146;2023-04-26T14:37:42;97411.34;;;13.86;37.22
62025;BME280;47978;49.118;12.146;2023-04-26T14:41:44;97401.41;;;13.59;35.12
62025;BME280;47978;49.118;12.146;2023-04-26T14:45:46;97403.84;;;13.60;35.92
62025;BME280;47978;49.118;12.146;2023-04-26T14:49:47;97404.69;;;13.35;34.73
62025;BME280;47978;49.118;12.146;2023-04-26T14:53:49;97405.28;;;13.05;35.60
62025;BME280;47978;49.118;12.146;2023-04-26T14:57:51;97398.81;;;13.27;36.14
62025;BME280;47978;49.118;12.146;2023-04-26T15:01:53;97402.56;;;13.58;34.89
62025;BME280;47978;49.118;12.146;2023-04-26T15:05:54;97400.78;;;13.44;35.51
62025;BME280;47978;49.118;12.146;2023-04-26T15:09:56;97402.75;;;13.35;35.50
62025;BME280;47978;49.118;12.146;2023-04-26T15:13:58;97402.75;;;13.26;34.38
62025;BME280;47978;49.118;12.146;2023-04-26T15:18:00;97402.16;;;12.90;35.41
62025;BME280;47978;49.118;12.146;2023-04-26T15:22:01;97408.19;;;13.00;36.29
62025;BME280;47978;49.118;12.146;2023-04-26T15:26:03;97399.69;;;12.88;35.69
62025;BME280;47978;49.118;12.146;2023-04-26T15:30:06;97408.19;;;12.83;35.10
62025;BME280;47978;49.118;12.146;2023-04-26T15:34:07;97405.91;;;12.94;36.57
62025;BME280;47978;49.118;12.146;2023-04-26T15:38:09;97408.69;;;12.94;35.49
62025;BME280;47978;49.118;12.146;2023-04-26T15:42:10;97398.63;;;13.15;36.06
62025;BME280;47978;49.118;12.146;2023-04-26T15:46:13;97391.47;;;13.49;34.41
62025;BME280;47978;49.118;12.146;2023-04-26T15:50:14;97382.78;;;13.68;33.45
62025;BME280;47978;49.118;12.146;2023-04-26T15:54:16;97385.22;;;13.69;34.92
62025;BME280;47978;49.118;12.146;2023-04-26T15:58:17;97381.44;;;13.74;34.34
62025;BME280;47978;49.118;12.146;2023-04-26T16:02:20;97387.50;;;13.67;34.27
62025;BME280;47978;49.118;12.146;2023-04-26T16:06:21;97390.81;;;13.61;35.03
62025;BME280;47978;49.118;12.146;2023-04-26T16:10:23;97387.69;;;13.36;35.15
62025;BME280;47978;49.118;12.146;2023-04-26T16:14:24;97383.06;;;13.14;35.06
62025;BME280;47978;49.118;12.146;2023-04-26T16:18:27;97393.19;;;12.93;35.42
62025;BME280;47978;49.118;12.146;2023-04-26T16:22:28;97389.69;;;12.61;36.51
62025;BME280;47978;49.118;12.146;2023-04-26T16:26:30;97389.22;;;12.76;36.12
62025;BME280;47978;49.118;12.146;2023-04-26T16:30:31;97377.06;;;13.12;35.58
62025;BME280;47978;49.118;12.146;2023-04-26T16:34:34;97372.31;;;13.13;34.34
62025;BME280;47978;49.118;12.146;2023-04-26T16:38:35;97379.88;;;13.30;34.86
62025;BME280;47978;49.118;12.146;2023-04-26T16:42:37;97388.81;;;13.09;34.61
62025;BME280;47978;49.118;12.146;2023-04-26T16:46:38;97385.06;;;13.31;34.57
62025;BME280;47978;49.118;12.146;2023-04-26T16:50:41;97387.38;;;13.29;34.76
62025;BME280;47978;49.118;12.146;2023-04-26T16:54:43;97387.00;;;13.22;35.62
62025;BME280;47978;49.118;12.146;2023-04-26T16:58:44;97394.81;;;12.85;35.34
62025;BME280;47978;49.118;12.146;2023-04-26T17:02:47;97398.81;;;12.53;36.03
62025;BME280;47978;49.118;12.146;2023-04-26T17:06:50;97399.41;;;12.41;36.92
62025;BME280;47978;49.118;12.146;2023-04-26T17:10:51;97403.63;;;12.30;36.49
62025;BME280;47978;49.118;12.146;2023-04-26T17:14:53;97402.25;;;12.19;37.90
62025;BME280;47978;49.118;12.146;2023-04-26T17:18:54;97414.13;;;12.10;38.98
62025;BME280;47978;49.118;12.146;2023-04-26T17:22:57;97404.47;;;12.08;39.00
62025;BME280;47978;49.118;12.146;2023-04-26T17:26:58;97416.75;;;12.15;40.14
62025;BME280;47978;49.118;12.146;2023-04-26T17:31:00;97415.19;;;12.01;42.43
62025;BME280;47978;49.118;12.146;2023-04-26T17:35:01;97420.06;;;11.73;45.13
62025;BME280;47978;49.118;12.146;2023-04-26T17:39:04;97415.69;;;11.35;47.79
62025;BME280;47978;49.118;12.146;2023-04-26T17:43:05;97420.38;;;10.98;49.25
62025;BME280;47978;49.118;12.146;2023-04-26T17:47:07;97425.34;;;10.32;49.12
62025;BME280;47978;49.118;12.146;2023-04-26T17:51:08;97423.97;;;10.02;51.11
62025;BME280;47978;49.118;12.146;2023-04-26T17:55:11;97423.63;;;9.76;52.91
62025;BME280;47978;49.118;12.146;2023-04-26T17:59:12;97415.59;;;9.42;53.47
62025;BME280;47978;49.118;12.146;2023-04-26T18:03:14;97424.72;;;9.23;54.06
62025;BME280;47978;49.118;12.146;2023-04-26T18:07:15;97434.19;;;8.98;55.16
62025;BME280;47978;49.118;12.146;2023-04-26T18:11:19;97438.66;;;9.13;55.10
62025;BME280;47978;49.118;12.146;2023-04-26T18:15:21;97448.78;;;8.56;56.82
62025;BME280;47978;49.118;12.146;2023-04-26T18:19:22;97454.66;;;8.49;57.32
62025;BME280;47978;49.118;12.146;2023-04-26T18:23:24;97471.34;;;8.34;58.29
62025;BME280;47978;49.118;12.146;2023-04-26T18:27:26;97471.31;;;8.39;58.30
62025;BME280;47978;49.118;12.146;2023-04-26T18:31:28;97474.59;;;8.12;59.39
62025;BME280;47978;49.118;12.146;2023-04-26T18:35:32;97480.91;;;7.88;60.40
62025;BME280;47978;49.118;12.146;2023-04-26T18:39:34;97484.31;;;7.75;61.08
62025;BME280;47978;49.118;12.146;2023-04-26T18:43:36;97483.78;;;7.68;61.39
62025;BME280;47978;49.118;12.146;2023-04-26T18:47:38;97487.28;;;7.44;62.35
62025;BME280;47978;49.118;12.146;2023-04-26T18:51:39;97480.44;;;7.37;62.75
62025;BME280;47978;49.118;12.146;2023-04-26T18:55:41;97484.03;;;7.37;62.97
62025;BME280;47978;49.118;12.146;2023-04-26T18:59:43;97490.16;;;7.29;63.40
62025;BME280;47978;49.118;12.146;2023-04-26T19:03:45;97508.16;;;7.06;63.82
62025;BME280;47978;49.118;12.146;2023-04-26T19:07:49;97504.66;;;6.85;65.07
62025;BME280;47978;49.118;12.146;2023-04-26T19:11:51;97505.22;;;6.82;65.23
62025;BME280;47978;49.118;12.146;2023-04-26T19:15:54;97513.00;;;6.70;65.75
62025;BME280;47978;49.118;12.146;2023-04-26T19:19:55;97503.69;;;6.56;66.35
62025;BME280;47978;49.118;12.146;2023-04-26T19:23:57;97519.06;;;6.51;66.65
62025;BME280;47978;49.118;12.146;2023-04-26T19:27:58;97519.06;;;6.57;66.04
62025;BME280;47978;49.118;12.146;2023-04-26T19:32:01;97524.31;;;6.48;67.19
62025;BME280;47978;49.118;12.146;2023-04-26T19:36:03;97523.25;;;6.39;67.30
62025;BME280;47978;49.118;12.146;2023-04-26T19:40:05;97528.19;;;6.31;67.87
62025;BME280;47978;49.118;12.146;2023-04-26T19:44:06;97524.94;;;6.19;68.29
62025;BME280;47978;49.118;12.146;2023-04-26T19:48:09;97525.75;;;6.15;68.47
62025;BME280;47978;49.118;12.146;2023-04-26T19:52:10;97530.97;;;6.21;68.19
62025;BME280;47978;49.118;12.146;2023-04-26T19:56:12;97523.28;;;6.03;68.63
62025;BME280;47978;49.118;12.146;2023-04-26T20:00:13;97533.44;;;5.67;69.67
62025;BME280;47978;49.118;12.146;2023-04-26T20:04:16;97540.53;;;5.57;69.78
62025;BME280;47978;49.118;12.146;2023-04-26T20:08:18;97535.88;;;5.48;69.91
62025;BME280;47978;49.118;12.146;2023-04-26T20:12:19;97537.16;;;5.14;71.04
62025;BME280;47978;49.118;12.146;2023-04-26T20:16:21;97537.63;;;4.86;72.17
62025;BME280;47978;49.118;12.146;2023-04-26T20:20:23;97543.13;;;4.91;71.44
62025;BME280;47978;49.118;12.146;2023-04-26T20:24:25;97541.91;;;4.66;72.29
62025;BME280;47978;49.118;12.146;2023-04-26T20:28:26;97541.81;;;4.46;72.97
62025;BME280;47978;49.118;12.146;2023-04-26T20:32:27;97546.97;;;4.37;72.89
62025;BME280;47978;49.118;12.146;2023-04-26T20:36:30;97546.38;;;4.25;73.37
62025;BME280;47978;49.118;12.146;2023-04-26T20:40:32;97544.88;;;4.07;73.96
62025;BME280;47978;49.118;12.146;2023-04-26T20:44:33;97544.22;;;3.95;74.04
62025;BME280;47978;49.118;12.146;2023-04-26T20:48:34;97542.31;;;3.95;73.62
62025;BME280;47978;49.118;12.146;2023-04-26T20:52:37;97549.59;;;3.79;74.07
62025;BME280;47978;49.118;12.146;2023-04-26T20:56:39;97549.84;;;3.78;73.90
62025;BME280;47978;49.118;12.146;2023-04-26T21:00:40;97554.16;;;3.69;74.56
62025;BME280;47978;49.118;12.146;2023-04-26T21:04:41;97555.44;;;3.61;74.88
62025;BME280;47978;49.118;12.146;2023-04-26T21:08:44;97560.66;;;3.63;75.21
62025;BME280;47978;49.118;12.146;2023-04-26T21:12:46;97561.78;;;3.67;75.03
62025;BME280;47978;49.118;12.146;2023-04-26T21:16:47;97559.25;;;3.60;74.84
62025;BME280;47978;49.118;12.146;2023-04-26T21:20:48;97556.00;;;3.63;74.94
62025;BME280;47978;49.118;12.146;2023-04-26T21:24:51;97564.31;;;3.73;75.14